Time;durP1;ratioP1;P1;durP2;ratioP2;P2;SDS_P1;SDS_P2;PMS_P1;PMS_P2;Temp;Humidity;BMP_temperature;BMP_pressure;BME280_temperature;BME280_humidity;BME280_pressure;Samples;Min_cycle;Max_cycle;Signal;HPM_P1;HPM_P2
2022/01/24 00:02:38;;;;;;;1.75;1.00;;;16.80;24.60;17.00;95094.00;;;;10471965;28;46712;-78
2022/01/24 00:07:38;;;;;;;1.17;1.00;;;16.70;24.50;16.90;95094.00;;;;10478729;22;47261;-79
2022/01/24 00:13:07;;;;;;;1.55;1.10;;;16.70;24.50;16.90;95101.00;;;;10409588;28;47464;-79
2022/01/24 00:18:26;;;;;;;1.38;0.98;;;16.70;24.50;16.90;95096.00;;;;10412967;28;47205;-80
2022/01/24 00:26:44;;;;;;;1.40;0.90;;;16.70;24.60;16.90;95084.00;;;;10394649;28;48018;-79
2022/01/24 00:28:56;;;;;;;1.30;0.93;;;16.70;24.50;16.90;95087.00;;;;10407141;28;45334;-79
2022/01/24 00:33:57;;;;;;;1.40;1.15;;;16.70;24.50;16.90;95087.00;;;;10389966;28;47258;-78
2022/01/24 00:38:57;;;;;;;1.33;1.08;;;16.60;24.50;16.80;95079.00;;;;10389375;28;48419;-79
2022/01/24 00:44:30;;;;;;;1.85;1.15;;;16.60;24.50;16.80;95070.00;;;;10390829;28;46992;-79
2022/01/24 00:54:43;;;;;;;1.75;1.10;;;16.60;24.40;16.80;95073.00;;;;10407568;28;46149;-79
2022/01/24 00:59:44;;;;;;;1.67;1.23;;;16.60;24.40;16.80;95070.00;;;;10405585;28;45292;-79
2022/01/24 01:05:02;;;;;;;1.50;1.00;;;16.50;24.30;16.70;95073.00;;;;10388432;28;47507;-79
2022/01/24 01:21:10;;;;;;;1.50;1.20;;;16.50;24.40;16.70;95052.00;;;;10417237;28;44934;-79
2022/01/24 01:26:20;;;;;;;1.70;1.10;;;16.50;24.60;16.70;95071.00;;;;10444657;28;47144;-79
2022/01/24 01:53:03;;;;;;;2.38;1.52;;;16.40;24.60;16.60;95075.00;;;;10444595;28;45748;-79
2022/01/24 01:58:14;;;;;;;3.00;1.60;;;16.40;24.60;16.60;95062.00;;;;10431169;28;47379;-79
2022/01/24 02:03:15;;;;;;;3.05;1.42;;;16.40;24.70;16.60;95051.00;;;;10439577;28;47392;-78
2022/01/24 02:08:17;;;;;;;2.20;1.45;;;16.30;24.60;16.60;95065.00;;;;10442205;28;48431;-79
2022/01/24 02:13:18;;;;;;;3.38;1.42;;;16.30;24.70;16.60;95043.00;;;;10425190;28;47294;-79
2022/01/24 02:18:33;;;;;;;2.55;1.55;;;16.30;24.70;16.60;95033.00;;;;10425125;28;47779;-79
2022/01/24 02:23:45;;;;;;;2.38;1.25;;;16.30;24.80;16.60;95039.00;;;;10407933;28;45600;-79
2022/01/24 02:29:03;;;;;;;2.17;1.20;;;16.30;24.80;16.50;95026.00;;;;10383758;28;47785;-79
2022/01/24 02:34:27;;;;;;;3.60;1.40;;;16.30;24.80;16.50;95045.00;;;;10385263;28;47189;-79
2022/01/24 02:49:54;;;;;;;1.65;1.13;;;16.30;24.80;16.50;95032.00;;;;10414801;28;45751;-79
2022/01/24 02:54:55;;;;;;;2.58;1.45;;;16.30;24.80;16.50;95039.00;;;;10383307;28;47247;-79
2022/01/24 02:59:55;;;;;;;2.00;1.30;;;16.30;24.80;16.50;95017.00;;;;10383026;28;47170;-80
2022/01/24 03:04:57;;;;;;;1.80;1.55;;;16.30;24.80;16.40;95016.00;;;;10382020;28;47500;-79
2022/01/24 03:10:00;;;;;;;1.40;1.10;;;16.20;24.70;16.50;95021.00;;;;10382154;28;47271;-79
2022/01/24 03:15:01;;;;;;;1.88;1.30;;;16.20;24.70;16.40;95023.00;;;;10382679;28;47409;-79
2022/01/24 03:20:03;;;;;;;2.67;1.48;;;16.20;24.70;16.40;95033.00;;;;10387965;28;47284;-79
2022/01/24 03:25:04;;;;;;;1.92;1.30;;;16.20;24.80;16.40;95020.00;;;;10423078;28;47372;-79
2022/01/24 03:30:06;;;;;;;2.20;1.33;;;16.20;24.70;16.40;95021.00;;;;10423824;28;48234;-79
2022/01/24 03:35:07;;;;;;;1.83;1.30;;;16.10;24.80;16.30;95023.00;;;;10422919;28;47473;-80
2022/01/24 03:40:09;;;;;;;2.78;1.40;;;16.10;25.40;16.30;95035.00;;;;10422387;28;47133;-80
2022/01/24 03:45:11;;;;;;;3.05;1.58;;;16.10;24.80;16.30;95027.00;;;;10422383;28;48585;-80
2022/01/24 03:50:16;;;;;;;2.25;1.50;;;16.10;24.80;16.30;95017.00;;;;10435410;28;48123;-79
2022/01/24 03:55:17;;;;;;;2.95;1.90;;;16.10;25.40;16.40;95010.00;;;;10434507;28;47554;-79
2022/01/24 04:00:18;;;;;;;3.20;2.00;;;16.10;24.80;16.30;95017.00;;;;10424627;28;47261;-79
2022/01/24 04:05:19;;;;;;;3.05;1.70;;;16.10;24.80;16.30;95011.00;;;;10421464;28;47028;-78
2022/01/24 04:10:21;;;;;;;3.55;2.03;;;16.00;24.90;16.20;95027.00;;;;10421094;28;48384;-79
2022/01/24 04:25:44;;;;;;;3.92;1.75;;;16.00;25.00;16.20;95005.00;;;;10467395;28;45243;-78
2022/01/24 04:30:47;;;;;;;3.70;2.25;;;16.00;25.10;16.30;95012.00;;;;10448860;28;46977;-78
2022/01/24 04:35:48;;;;;;;2.90;2.25;;;16.00;25.10;16.30;95022.00;;;;10473448;28;45562;-79
2022/01/24 04:40:49;;;;;;;3.10;2.17;;;16.00;25.00;16.30;95027.00;;;;10475201;28;46576;-79
2022/01/24 04:46:47;;;;;;;2.70;1.88;;;16.10;25.10;16.30;95015.00;;;;10455949;28;48297;-79
2022/01/24 04:56:45;;;;;;;1.73;1.42;;;16.10;25.00;16.30;95014.00;;;;10451309;28;45371;-79
2022/01/24 05:01:46;;;;;;;2.70;1.52;;;16.10;24.90;16.30;95020.00;;;;10473611;28;45379;-79
2022/01/24 05:06:47;;;;;;;2.70;1.70;;;16.10;24.80;16.30;95017.00;;;;10453821;28;47122;-79
2022/01/24 05:27:46;;;;;;;1.98;1.27;;;16.20;24.50;16.40;95028.00;;;;10427752;28;44841;-79
2022/01/24 05:32:47;;;;;;;1.48;1.23;;;16.20;24.40;16.40;95004.00;;;;10408163;28;47073;-79
2022/01/24 05:37:48;;;;;;;2.60;1.58;;;16.20;24.40;16.40;95008.00;;;;10408203;28;48150;-79
2022/01/24 05:42:48;;;;;;;2.90;1.42;;;16.20;24.30;16.40;95017.00;;;;10407546;28;47217;-79
2022/01/24 05:47:49;;;;;;;2.15;1.63;;;16.20;24.30;16.40;95030.00;;;;10407114;28;47366;-79
2022/01/24 05:52:50;;;;;;;2.60;1.70;;;16.20;24.20;16.50;95015.00;;;;10405630;28;47338;-79
2022/01/24 05:57:53;;;;;;;2.97;1.75;;;16.30;24.20;16.60;95016.00;;;;10422434;28;45346;-79
2022/01/24 06:02:53;;;;;;;3.15;1.88;;;16.30;24.10;16.60;95017.00;;;;10407725;28;47388;-79
2022/01/24 06:07:55;;;;;;;2.47;1.88;;;16.40;23.90;16.60;95027.00;;;;10401960;28;47436;-80
2022/01/24 06:12:55;;;;;;;2.92;1.90;;;16.40;23.90;16.60;95022.00;;;;10401849;28;45239;-80
2022/01/24 06:17:56;;;;;;;2.03;1.67;;;16.40;23.80;16.60;95025.00;;;;10384599;28;48243;-80
2022/01/24 06:22:57;;;;;;;2.38;1.52;;;16.40;23.60;16.40;95031.00;;;;10382053;28;47515;-80
2022/01/24 06:27:57;;;;;;;2.78;1.67;;;16.40;23.60;16.50;95038.00;;;;10383494;28;46869;-80
2022/01/24 06:32:58;;;;;;;3.00;1.88;;;16.40;23.60;16.50;95025.00;;;;10398673;28;46465;-80
2022/01/24 06:37:59;;;;;;;3.20;1.88;;;16.30;23.50;16.50;95046.00;;;;10381548;28;47257;-80
2022/01/24 06:42:59;;;;;;;3.28;2.33;;;16.30;23.60;16.50;95047.00;;;;10380965;28;47775;-80
2022/01/24 06:48:00;;;;;;;3.05;1.77;;;16.30;23.60;16.50;95048.00;;;;10398301;28;45279;-80
2022/01/24 06:53:01;;;;;;;3.38;2.08;;;16.30;23.60;16.50;95046.00;;;;10398495;28;45680;-80
2022/01/24 06:58:02;;;;;;;3.92;2.50;;;16.30;23.50;16.40;95063.00;;;;10380515;28;47218;-80
2022/01/24 07:03:03;;;;;;;2.58;1.88;;;16.30;23.40;16.60;95071.00;;;;10380639;28;47023;-80
2022/01/24 07:08:04;;;;;;;3.03;2.10;;;16.30;23.40;16.60;95042.00;;;;10379707;28;46973;-80
2022/01/24 07:13:05;;;;;;;3.53;2.15;;;16.40;23.30;16.60;95060.00;;;;10378935;28;47982;-80
2022/01/24 07:23:06;;;;;;;3.30;2.63;;;16.40;23.20;16.50;95068.00;;;;10435688;28;45173;-79
2022/01/24 07:28:07;;;;;;;2.65;2.13;;;16.40;23.20;16.50;95079.00;;;;10423447;28;48262;-79
2022/01/24 07:33:08;;;;;;;3.75;2.45;;;16.30;23.30;16.50;95087.00;;;;10426457;28;46829;-79
2022/01/24 07:38:08;;;;;;;2.50;1.77;;;16.30;23.40;16.50;95088.00;;;;10427599;28;47920;-79
2022/01/24 07:43:12;;;;;;;2.22;1.67;;;16.30;23.40;16.50;95092.00;;;;10427605;28;48263;-79
2022/01/24 07:48:14;;;;;;;4.38;2.58;;;16.30;23.50;16.50;95100.00;;;;10429399;28;47240;-80
2022/01/24 07:53:16;;;;;;;3.47;1.90;;;16.30;23.60;16.60;95097.00;;;;10420152;28;47217;-79
2022/01/24 07:58:17;;;;;;;3.88;2.20;;;16.40;25.30;16.50;95108.00;;;;10409896;28;48080;-79
2022/01/24 08:03:18;;;;;;;3.78;2.15;;;16.40;24.60;16.50;95105.00;;;;10396573;28;47258;-79
2022/01/24 08:08:19;;;;;;;2.53;1.60;;;16.30;24.40;16.50;95104.00;;;;10399536;28;47179;-79
2022/01/24 08:13:20;;;;;;;3.13;2.00;;;16.30;24.30;16.50;95107.00;;;;10395398;28;47342;-79
2022/01/24 08:18:20;;;;;;;3.83;1.98;;;16.30;24.30;16.50;95105.00;;;;10402872;28;47530;-79
2022/01/24 08:23:21;;;;;;;2.92;2.00;;;16.30;24.40;16.50;95104.00;;;;10357329;28;46810;-79
2022/01/24 08:28:23;;;;;;;3.38;2.30;;;16.30;24.40;16.50;95119.00;;;;10379322;28;47241;-79
2022/01/24 08:33:24;;;;;;;3.65;2.33;;;16.30;24.60;16.60;95138.00;;;;10379596;28;46943;-79
2022/01/24 08:38:24;;;;;;;4.65;2.03;;;16.30;24.50;16.70;95125.00;;;;10386949;28;47427;-79
2022/01/24 08:43:39;;;;;;;4.03;2.45;;;16.40;24.80;16.70;95130.00;;;;10406022;28;47517;-79
2022/01/24 08:48:40;;;;;;;3.53;2.22;;;16.50;24.60;16.90;95132.00;;;;10401648;28;45218;-77
2022/01/24 08:53:41;;;;;;;3.60;2.05;;;16.60;25.40;16.80;95149.00;;;;10419285;28;47932;-78
2022/01/24 08:58:42;;;;;;;3.22;2.20;;;16.60;24.90;16.80;95148.00;;;;10424354;28;47187;-79
2022/01/24 09:03:43;;;;;;;2.78;1.92;;;16.60;24.70;16.80;95142.00;;;;10441417;28;46894;-79
2022/01/24 09:08:45;;;;;;;3.22;1.92;;;16.60;24.50;16.90;95158.00;;;;10424958;28;47163;-79
2022/01/24 09:13:45;;;;;;;2.75;1.98;;;16.60;24.50;16.90;95142.00;;;;10441858;28;46692;-78
2022/01/24 09:18:46;;;;;;;2.97;2.30;;;16.70;24.50;17.00;95152.00;;;;10441559;28;45373;-78
2022/01/24 09:23:47;;;;;;;2.78;2.00;;;16.70;25.00;17.00;95137.00;;;;10362848;28;47339;-78
2022/01/24 09:28:48;;;;;;;2.47;1.75;;;16.70;24.40;16.90;95141.00;;;;10374914;28;47101;-79
2022/01/24 09:33:53;;;;;;;2.67;1.80;;;16.70;24.40;16.90;95162.00;;;;10374737;28;47037;-78
2022/01/24 09:38:54;;;;;;;3.00;2.00;;;16.70;24.50;16.90;95153.00;;;;10374144;28;48340;-78
2022/01/24 09:43:55;;;;;;;3.75;1.73;;;16.70;24.40;16.90;95160.00;;;;10374534;28;47045;-78
2022/01/24 09:48:56;;;;;;;3.03;1.75;;;16.70;24.50;17.10;95159.00;;;;10374745;28;46891;-78
2022/01/24 09:53:58;;;;;;;2.22;1.60;;;16.70;24.40;17.10;95141.00;;;;10373969;28;47072;-78
2022/01/24 09:58:58;;;;;;;2.20;1.80;;;16.80;24.30;17.00;95151.00;;;;10374977;28;46966;-78
2022/01/24 10:04:19;;;;;;;2.83;1.70;;;16.80;24.30;16.90;95163.00;;;;10374448;28;47320;-79
2022/01/24 10:09:38;;;;;;;2.70;1.77;;;16.70;24.40;16.80;95158.00;;;;10373689;28;47227;-79
2022/01/24 10:20:21;;;;;;;2.42;1.88;;;16.60;24.40;16.80;95168.00;;;;10384568;28;45172;-79
2022/01/24 10:25:22;;;;;;;2.80;1.80;;;16.60;24.50;16.80;95157.00;;;;10441049;28;45445;-78
2022/01/24 10:30:27;;;;;;;3.15;1.85;;;16.60;24.60;16.80;95158.00;;;;10423099;28;46899;-78
2022/01/24 10:35:44;;;;;;;3.80;1.83;;;16.60;24.70;16.80;95150.00;;;;10422300;28;46988;-78
2022/01/24 10:41:07;;;;;;;4.38;1.70;;;16.60;24.70;16.80;95152.00;;;;10439914;28;45196;-79
2022/01/24 10:46:09;;;;;;;3.15;1.65;;;16.60;24.70;16.70;95151.00;;;;10425859;28;46972;-79
2022/01/24 10:51:22;;;;;;;2.33;1.40;;;16.50;24.80;17.00;95148.00;;;;10421686;28;47227;-81
2022/01/24 10:56:59;;;;;;;2.30;1.55;;;16.60;26.20;16.90;95153.00;;;;10440217;28;48148;-81
2022/01/24 11:02:23;;;;;;;3.15;1.85;;;16.70;25.80;16.80;95151.00;;;;10364815;28;45177;-79
2022/01/24 11:07:28;;;;;;;2.55;1.70;;;16.60;25.50;16.80;95150.00;;;;10458100;28;44884;-79
2022/01/24 11:12:35;;;;;;;2.30;1.70;;;16.60;25.30;16.80;95103.00;;;;10435448;28;46249;-80
2022/01/24 11:17:37;;;;;;;;;;;16.60;25.20;16.80;95122.00;;;;10422777;28;47187;-77
2022/01/24 11:22:44;;;;;;;3.67;2.55;;;16.60;25.50;16.80;95131.00;;;;10443622;28;46958;-78
2022/01/24 11:27:48;;;;;;;3.15;2.08;;;16.60;25.90;16.80;95111.00;;;;10437260;28;47299;-77
2022/01/24 11:33:13;;;;;;;3.72;2.55;;;16.50;25.60;16.80;95118.00;;;;10420870;28;47110;-78
2022/01/24 11:38:36;;;;;;;4.72;2.80;;;16.60;25.50;16.80;95110.00;;;;10420338;28;47614;-77
2022/01/24 11:43:41;;;;;;;8.10;3.70;;;16.60;25.60;16.90;95103.00;;;;10420013;28;47383;-76
2022/01/24 11:49:25;;;;;;;6.57;4.07;;;16.60;25.50;16.90;95087.00;;;;10436886;28;45383;-77
2022/01/24 11:59:45;;;;;;;5.28;3.20;;;16.70;25.40;17.00;95077.00;;;;10439488;28;45088;-78
2022/01/24 12:04:54;;;;;;;5.10;3.15;;;16.70;25.40;17.00;95096.00;;;;10444073;28;46614;-78
2022/01/24 12:10:32;;;;;;;5.00;2.85;;;16.70;25.40;17.00;95078.00;;;;10428442;28;47055;-77
2022/01/24 12:15:48;;;;;;;3.85;2.75;;;16.70;25.40;17.00;95090.00;;;;10408152;28;46696;-77
2022/01/24 12:20:54;;;;;;;4.63;2.80;;;16.80;25.40;17.10;95081.00;;;;10403948;28;46475;-77
2022/01/24 12:26:06;;;;;;;4.50;2.83;;;16.80;25.30;17.10;95071.00;;;;10393587;28;46171;-77
2022/01/24 12:31:08;;;;;;;4.22;2.70;;;16.90;25.40;17.10;95088.00;;;;10361265;28;47125;-77
2022/01/24 12:36:15;;;;;;;5.43;2.90;;;16.90;25.30;17.10;95092.00;;;;10361928;28;45183;-77
2022/01/24 12:41:36;;;;;;;4.28;2.88;;;16.90;25.30;17.10;95083.00;;;;10361964;28;46162;-77
2022/01/24 12:46:37;;;;;;;3.72;2.78;;;16.90;25.30;17.20;95060.00;;;;10346327;28;47010;-77
2022/01/24 12:51:38;;;;;;;6.43;3.30;;;16.90;25.30;17.20;95070.00;;;;10377922;28;45411;-77
2022/01/24 12:56:39;;;;;;;4.43;2.92;;;16.90;25.30;17.10;95067.00;;;;10360637;28;46441;-77
2022/01/24 13:01:41;;;;;;;4.97;3.20;;;16.90;25.20;17.10;95072.00;;;;10361846;28;47039;-78
2022/01/24 13:06:46;;;;;;;5.18;3.38;;;16.90;25.20;17.10;95050.00;;;;10413448;28;47876;-77
2022/01/24 13:12:00;;;;;;;4.13;3.08;;;16.90;25.30;17.30;95066.00;;;;10423658;28;47090;-78
2022/01/24 13:22:36;;;;;;;4.80;3.15;;;16.90;25.10;17.10;95065.00;;;;10441550;28;45184;-77
2022/01/24 13:27:48;;;;;;;7.32;3.83;;;16.90;25.20;17.20;95065.00;;;;10384022;28;47102;-78
2022/01/24 13:32:56;;;;;;;4.88;3.58;;;16.90;25.20;17.10;95068.00;;;;10382742;28;47153;-78
2022/01/24 13:38:00;;;;;;;5.78;3.42;;;16.90;25.20;17.00;95066.00;;;;10382091;28;46581;-78
2022/01/24 13:43:01;;;;;;;5.13;3.42;;;16.90;25.30;17.00;95053.00;;;;10382189;28;47991;-78
2022/01/24 13:48:05;;;;;;;5.20;3.53;;;16.80;25.30;17.10;95042.00;;;;10382262;28;47191;-78
2022/01/24 13:53:05;;;;;;;7.10;3.70;;;16.80;25.20;17.00;95056.00;;;;10397873;28;46260;-78
2022/01/24 13:58:09;;;;;;;5.35;3.80;;;16.80;25.30;17.00;95054.00;;;;10421218;28;47308;-78
2022/01/24 14:03:11;;;;;;;5.72;3.95;;;16.80;25.30;17.00;95055.00;;;;10415747;28;45346;-77
2022/01/24 14:08:14;;;;;;;4.53;3.35;;;16.80;25.30;16.90;95059.00;;;;10392937;28;47256;-77
2022/01/24 14:13:20;;;;;;;6.70;3.95;;;16.70;25.30;16.90;95047.00;;;;10405145;28;46321;-77
2022/01/24 14:18:29;;;;;;;7.17;4.30;;;16.70;25.40;16.90;95051.00;;;;10373962;28;48180;-78
2022/01/24 14:23:35;;;;;;;5.93;3.85;;;16.70;25.40;16.90;95061.00;;;;10395395;28;47270;-77
2022/01/24 14:29:17;;;;;;;6.45;4.20;;;16.70;25.40;16.80;95065.00;;;;10391025;28;47108;-77
2022/01/24 14:34:18;;;;;;;4.28;2.45;;;16.70;25.50;17.10;95068.00;;;;10411921;28;45324;-79
2022/01/24 14:39:22;;;;;;;5.45;3.75;;;16.70;27.80;16.90;95043.00;;;;10376358;28;47257;-79
2022/01/24 14:49:43;;;;;;;5.88;3.65;;;16.60;26.20;16.90;95054.00;;;;10414942;28;45176;-79
2022/01/24 14:54:44;;;;;;;5.72;3.80;;;16.60;25.90;16.80;95065.00;;;;10412555;28;45319;-79
2022/01/24 14:59:45;;;;;;;7.18;4.20;;;16.60;25.80;16.80;95066.00;;;;10381640;28;45485;-79
2022/01/24 15:04:45;;;;;;;7.22;4.40;;;16.60;25.80;16.80;95050.00;;;;10403341;28;47784;-79
2022/01/24 15:09:46;;;;;;;7.53;4.30;;;16.60;25.80;16.80;95055.00;;;;10386992;28;47565;-77
2022/01/24 15:14:48;;;;;;;7.20;4.32;;;16.60;25.70;16.80;95067.00;;;;10383025;28;47937;-78
2022/01/24 15:30:17;;;;;;;;;;;16.60;26.00;16.70;95101.00;;;;10400145;28;45283;-79
2022/01/24 15:35:18;;;;;;;6.72;4.40;;;16.50;26.20;16.70;95089.00;;;;10384079;28;47236;-79
2022/01/24 15:40:20;;;;;;;6.68;4.00;;;16.50;26.20;16.80;95077.00;;;;10378481;28;47975;-79
2022/01/24 15:50:41;;;;;;;7.85;4.38;;;16.50;26.10;16.80;95099.00;;;;10401056;28;45387;-79
2022/01/24 15:56:11;;;;;;;6.03;4.40;;;16.50;26.00;16.80;95079.00;;;;10389733;28;47305;-79
2022/01/24 16:01:04;;;;;;;8.00;5.00;;;16.60;26.00;16.80;95082.00;;;;10401719;28;45262;-77
2022/01/24 16:06:06;;;;;;;7.68;5.10;;;16.60;26.00;16.90;95083.00;;;;10388635;28;45321;-78
2022/01/24 16:11:07;;;;;;;7.63;4.95;;;16.60;25.90;16.90;95090.00;;;;10396183;28;47038;-79
2022/01/24 16:16:09;;;;;;;7.15;4.78;;;16.60;25.80;17.00;95091.00;;;;10371463;28;48095;-79
2022/01/24 16:26:23;;;;;;;7.22;4.90;;;16.70;25.80;17.00;95099.00;;;;10405359;28;46096;-79
2022/01/24 16:31:23;;;;;;;6.45;4.25;;;16.80;25.70;17.00;95088.00;;;;10404526;28;45631;-78
2022/01/24 16:36:24;;;;;;;6.90;4.40;;;16.80;25.70;17.10;95091.00;;;;10378367;28;47571;-77
2022/01/24 16:41:35;;;;;;;6.32;4.38;;;16.80;25.60;17.10;95116.00;;;;10376269;28;46998;-79
2022/01/24 16:51:57;;;;;;;7.55;4.60;;;16.80;25.50;17.00;95111.00;;;;10409059;28;45702;-79
2022/01/24 16:56:59;;;;;;;8.85;5.13;;;16.70;25.50;17.00;95109.00;;;;10378633;28;47203;-79
2022/01/24 17:02:01;;;;;;;7.10;4.85;;;16.70;25.50;16.90;95097.00;;;;10386189;28;47922;-79
2022/01/24 17:07:02;;;;;;;7.85;5.38;;;16.70;25.50;16.90;95123.00;;;;10416899;28;46256;-79
2022/01/24 17:12:04;;;;;;;9.02;5.93;;;16.70;25.50;16.90;95120.00;;;;10426477;28;46175;-79
2022/01/24 17:17:04;;;;;;;9.15;6.28;;;16.70;25.50;16.90;95124.00;;;;10411365;28;45215;-79
2022/01/24 17:22:05;;;;;;;8.50;6.00;;;16.60;25.50;16.80;95128.00;;;;10418593;28;45689;-79
2022/01/24 17:27:08;;;;;;;10.05;5.97;;;16.70;25.60;16.80;95125.00;;;;10430572;28;45273;-79
2022/01/24 17:32:09;;;;;;;10.82;5.90;;;16.60;25.60;16.80;95115.00;;;;10449475;28;45637;-79
2022/01/24 17:37:10;;;;;;;9.18;5.90;;;16.60;25.60;16.80;95140.00;;;;10431487;28;47060;-79
2022/01/24 17:42:11;;;;;;;9.95;6.18;;;16.60;25.60;16.80;95121.00;;;;10432404;28;46866;-78
2022/01/24 17:47:12;;;;;;;7.93;5.22;;;16.60;25.90;16.90;95133.00;;;;10413132;28;47192;-80
2022/01/24 17:52:14;;;;;;;11.52;6.30;;;16.60;26.90;16.80;95148.00;;;;10404001;28;45319;-79
2022/01/24 17:57:15;;;;;;;9.45;6.07;;;16.70;26.10;16.80;95138.00;;;;10403334;28;47260;-79
2022/01/24 18:02:15;;;;;;;7.85;5.43;;;16.60;25.90;16.90;95141.00;;;;10404252;28;48297;-79
2022/01/24 18:07:16;;;;;;;10.50;5.90;;;16.70;25.80;16.90;95136.00;;;;10387782;28;47122;-79
2022/01/24 18:12:17;;;;;;;9.93;6.55;;;16.70;25.60;16.90;95127.00;;;;10387747;28;47215;-79
2022/01/24 18:17:18;;;;;;;13.40;8.27;;;16.70;25.50;16.90;95145.00;;;;10403401;28;45604;-79
2022/01/24 18:22:19;;;;;;;10.77;7.05;;;16.60;25.50;16.80;95142.00;;;;10401847;28;47926;-79
2022/01/24 18:27:29;;;;;;;13.15;6.47;;;16.70;25.60;16.80;95169.00;;;;10381948;28;47472;-79
2022/01/24 18:32:30;;;;;;;8.93;6.40;;;16.60;25.60;16.80;95146.00;;;;10387502;28;46977;-79
2022/01/24 18:37:30;;;;;;;10.40;6.75;;;16.60;25.60;16.80;95145.00;;;;10409168;28;45310;-79
2022/01/24 18:42:34;;;;;;;9.13;6.18;;;16.60;25.60;16.70;95153.00;;;;10415922;28;46019;-79
2022/01/24 18:47:36;;;;;;;12.23;7.13;;;16.50;25.60;16.70;95158.00;;;;10399951;28;46501;-78
2022/01/24 18:52:37;;;;;;;9.32;6.32;;;16.50;25.60;16.70;95165.00;;;;10401900;28;47277;-79
2022/01/24 18:57:38;;;;;;;10.40;6.57;;;16.50;25.70;16.70;95149.00;;;;10423435;28;48144;-78
2022/01/24 19:02:41;;;;;;;9.75;6.75;;;16.50;25.70;16.70;95150.00;;;;10424087;28;47057;-78
2022/01/24 19:07:41;;;;;;;10.80;6.70;;;16.50;25.70;16.60;95129.00;;;;10408176;28;47958;-78
2022/01/24 19:12:46;;;;;;;7.18;4.70;;;16.40;25.70;16.90;95126.00;;;;10419525;28;47581;-74
2022/01/24 19:17:54;;;;;;;8.35;5.82;;;16.60;28.00;16.90;95131.00;;;;10420628;28;47167;-76
2022/01/24 19:28:15;;;;;;;10.48;6.05;;;16.50;26.70;16.50;95138.00;;;;10414757;28;45107;-76
2022/01/24 19:33:20;;;;;;;10.45;6.55;;;16.40;26.50;16.40;95126.00;;;;10398563;28;47558;-75
2022/01/24 19:38:21;;;;;;;9.90;6.75;;;16.30;26.40;16.40;95140.00;;;;10395132;28;45412;-76
2022/01/24 19:43:23;;;;;;;9.55;5.95;;;16.30;26.30;16.60;95148.00;;;;10395204;28;46405;-75
2022/01/24 19:48:27;;;;;;;9.52;6.68;;;16.30;27.00;16.40;95152.00;;;;10359336;28;47381;-76
2022/01/24 19:53:28;;;;;;;10.18;6.90;;;16.30;26.50;16.30;95148.00;;;;10393819;28;47035;-75
2022/01/24 19:58:32;;;;;;;10.55;6.75;;;16.20;26.30;16.30;95140.00;;;;10389166;28;48328;-76
2022/01/24 20:03:37;;;;;;;10.68;6.60;;;16.20;26.20;16.30;95141.00;;;;10376477;28;47094;-76
2022/01/24 20:08:38;;;;;;;10.95;7.20;;;16.20;26.10;16.30;95156.00;;;;10421078;28;45339;-76
2022/01/24 20:13:40;;;;;;;11.07;7.35;;;16.20;26.00;16.30;95144.00;;;;10376828;28;47089;-76
2022/01/24 20:18:41;;;;;;;10.88;7.10;;;16.10;25.90;16.20;95154.00;;;;10377498;28;47360;-76
2022/01/24 20:23:42;;;;;;;10.73;7.00;;;16.20;25.80;16.20;95136.00;;;;10436429;28;45472;-76
2022/01/24 20:28:43;;;;;;;12.00;8.20;;;16.10;25.70;16.20;95146.00;;;;10444508;28;45072;-75
2022/01/24 20:33:43;;;;;;;12.40;8.07;;;16.10;25.70;16.20;95160.00;;;;10442381;28;48220;-75
2022/01/24 20:38:53;;;;;;;13.48;8.50;;;16.10;25.60;16.30;95149.00;;;;10431648;28;45368;-75
2022/01/24 20:43:54;;;;;;;11.80;8.02;;;16.10;26.00;16.30;95148.00;;;;10414614;28;45567;-76
2022/01/24 20:48:55;;;;;;;11.43;7.68;;;16.20;25.70;16.30;95154.00;;;;10387794;28;45309;-76
2022/01/24 20:53:56;;;;;;;10.95;7.38;;;16.20;25.50;16.30;95121.00;;;;10393556;28;47937;-75
2022/01/24 20:58:56;;;;;;;9.93;6.50;;;16.20;25.20;16.30;95156.00;;;;10402446;28;47463;-75
2022/01/24 21:03:57;;;;;;;7.47;5.65;;;16.20;25.10;16.30;95168.00;;;;10420328;28;46747;-75
2022/01/24 21:09:12;;;;;;;9.88;6.65;;;16.10;25.00;16.30;95161.00;;;;10400485;28;45251;-75
2022/01/24 21:14:13;;;;;;;8.10;6.00;;;16.20;25.00;16.30;95156.00;;;;10399305;28;46711;-76
2022/01/24 21:19:14;;;;;;;9.80;7.00;;;16.10;25.00;16.30;95177.00;;;;10400082;28;45577;-76
2022/01/24 21:24:15;;;;;;;9.15;7.45;;;16.10;25.00;16.30;95159.00;;;;10423740;28;46658;-76
2022/01/24 21:29:16;;;;;;;8.65;5.90;;;16.10;25.00;16.50;95153.00;;;;10440214;23;47249;-70
2022/01/24 21:39:18;;;;;;;10.82;6.45;;;16.20;26.10;16.30;95168.00;;;;10460069;28;45148;-70
2022/01/24 21:44:21;;;;;;;10.52;6.28;;;16.20;25.80;16.20;95176.00;;;;10417241;28;46203;-70
2022/01/24 21:49:22;;;;;;;8.35;5.95;;;16.10;25.70;16.20;95177.00;;;;10433749;28;47281;-73
2022/01/24 21:54:23;;;;;;;9.82;5.78;;;16.10;25.60;16.20;95158.00;;;;10439217;28;46952;-70
2022/01/24 21:59:25;;;;;;;8.57;5.85;;;16.10;25.80;16.20;95157.00;;;;10438769;28;45397;-71
2022/01/24 22:04:25;;;;;;;8.27;5.38;;;16.10;25.90;16.20;95170.00;;;;10438497;28;47210;-70
2022/01/24 22:09:26;;;;;;;8.38;5.65;;;16.10;25.90;16.10;95161.00;;;;10439062;28;45475;-70
2022/01/24 22:14:27;;;;;;;9.52;5.97;;;16.00;26.00;16.00;95158.00;;;;10437866;28;45389;-70
2022/01/24 22:19:27;;;;;;;8.98;5.70;;;16.00;26.10;16.10;95168.00;;;;10434039;28;45275;-70
2022/01/24 22:24:28;;;;;;;9.05;5.65;;;16.00;26.10;16.10;95178.00;;;;10462209;28;48322;-70
2022/01/24 22:29:29;;;;;;;8.02;5.13;;;16.00;26.10;16.00;95172.00;;;;10479967;28;45334;-71
2022/01/24 22:34:29;;;;;;;9.00;5.45;;;15.90;26.10;16.10;95168.00;;;;10479681;28;47198;-69
2022/01/24 22:39:30;;;;;;;8.35;5.50;;;15.90;26.20;16.00;95171.00;;;;10462688;28;47482;-71
2022/01/24 22:44:33;;;;;;;8.07;5.25;;;15.90;26.30;16.00;95173.00;;;;10460913;28;48387;-70
2022/01/24 22:49:36;;;;;;;8.10;5.15;;;15.90;26.30;16.00;95179.00;;;;10461873;28;47803;-71
2022/01/24 22:54:38;;;;;;;7.18;5.20;;;15.90;26.40;16.00;95175.00;;;;10478881;28;45391;-70
2022/01/24 22:59:44;;;;;;;7.50;4.97;;;15.90;26.40;16.00;95155.00;;;;10462152;28;46966;-70
2022/01/24 23:04:46;;;;;;;7.97;5.23;;;15.90;26.40;16.00;95160.00;;;;10461826;28;47294;-70
2022/01/24 23:09:48;;;;;;;7.30;5.10;;;15.90;26.90;16.00;95161.00;;;;10478521;28;47173;-68
2022/01/24 23:20:09;;;;;;;7.85;5.03;;;15.90;26.40;16.00;95172.00;;;;10472169;28;45164;-70
2022/01/24 23:25:13;;;;;;;6.75;4.40;;;15.90;26.40;15.90;95180.00;;;;10418937;28;47100;-70
2022/01/24 23:30:18;;;;;;;7.32;5.07;;;15.80;26.40;15.90;95176.00;;;;10419402;28;47332;-70
2022/01/24 23:45:48;;;;;;;7.10;4.55;;;15.80;26.50;15.90;95167.00;;;;10436923;28;45081;-70
2022/01/24 23:50:49;;;;;;;7.00;4.63;;;15.80;26.50;15.90;95148.00;;;;10435902;28;46431;-70
2022/01/24 23:55:50;;;;;;;7.05;4.68;;;15.80;26.40;15.90;95150.00;;;;10436879;28;45382;-70
